sensor_id;sensor_type;location;lat;lon;timestamp;P1;durP1;ratioP1;P2;durP2;ratioP2
18796;SDS011;9526;52.612;13.300;2024-03-08T00:00:45;45.57;;;20.57;;
18796;SDS011;9526;52.612;13.300;2024-03-08T00:03:10;46.30;;;20.67;;
18796;SDS011;9526;52.612;13.300;2024-03-08T00:05:34;43.10;;;19.13;;
18796;SDS011;9526;52.612;13.300;2024-03-08T00:08:00;45.53;;;19.50;;
18796;SDS011;9526;52.612;13.300;2024-03-08T00:10:24;44.47;;;19.17;;
18796;SDS011;9526;52.612;13.300;2024-03-08T00:12:50;45.63;;;18.97;;
18796;SDS011;9526;52.612;13.300;2024-03-08T00:15:15;43.67;;;18.30;;
18796;SDS011;9526;52.612;13.300;2024-03-08T00:17:40;43.13;;;18.73;;
18796;SDS011;9526;52.612;13.300;2024-03-08T00:20:07;46.87;;;19.37;;
18796;SDS011;9526;52.612;13.300;2024-03-08T00:22:31;44.80;;;18.67;;
18796;SDS011;9526;52.612;13.300;2024-03-08T00:24:55;49.63;;;20.10;;
18796;SDS011;9526;52.612;13.300;2024-03-08T00:27:18;44.43;;;19.23;;
18796;SDS011;9526;52.612;13.300;2024-03-08T00:29:43;43.23;;;18.63;;
18796;SDS011;9526;52.612;13.300;2024-03-08T00:32:07;42.67;;;18.40;;
18796;SDS011;9526;52.612;13.300;2024-03-08T00:34:30;44.27;;;19.20;;
18796;SDS011;9526;52.612;13.300;2024-03-08T00:36:57;47.50;;;19.67;;
18796;SDS011;9526;52.612;13.300;2024-03-08T00:39:21;47.33;;;19.07;;
18796;SDS011;9526;52.612;13.300;2024-03-08T00:41:44;47.83;;;18.90;;
18796;SDS011;9526;52.612;13.300;2024-03-08T00:44:09;43.60;;;18.73;;
18796;SDS011;9526;52.612;13.300;2024-03-08T00:46:32;39.83;;;17.70;;
18796;SDS011;9526;52.612;13.300;2024-03-08T00:48:56;50.50;;;18.80;;
18796;SDS011;9526;52.612;13.300;2024-03-08T00:51:20;42.77;;;18.80;;
18796;SDS011;9526;52.612;13.300;2024-03-08T00:53:45;42.90;;;17.17;;
18796;SDS011;9526;52.612;13.300;2024-03-08T00:56:09;40.80;;;18.80;;
18796;SDS011;9526;52.612;13.300;2024-03-08T00:58:33;45.00;;;19.57;;
18796;SDS011;9526;52.612;13.300;2024-03-08T01:00:56;43.43;;;19.43;;
18796;SDS011;9526;52.612;13.300;2024-03-08T01:03:21;41.73;;;18.60;;
18796;SDS011;9526;52.612;13.300;2024-03-08T01:05:44;43.33;;;17.90;;
18796;SDS011;9526;52.612;13.300;2024-03-08T01:08:08;43.97;;;18.43;;
18796;SDS011;9526;52.612;13.300;2024-03-08T01:10:34;44.37;;;18.77;;
18796;SDS011;9526;52.612;13.300;2024-03-08T01:12:58;40.67;;;17.33;;
18796;SDS011;9526;52.612;13.300;2024-03-08T01:15:22;43.37;;;18.70;;
18796;SDS011;9526;52.612;13.300;2024-03-08T01:17:46;45.30;;;17.80;;
18796;SDS011;9526;52.612;13.300;2024-03-08T01:20:10;41.37;;;17.27;;
18796;SDS011;9526;52.612;13.300;2024-03-08T01:22:34;46.40;;;18.53;;
18796;SDS011;9526;52.612;13.300;2024-03-08T01:24:58;46.63;;;19.47;;
18796;SDS011;9526;52.612;13.300;2024-03-08T01:27:23;43.23;;;18.47;;
18796;SDS011;9526;52.612;13.300;2024-03-08T01:29:47;40.60;;;17.10;;
18796;SDS011;9526;52.612;13.300;2024-03-08T01:32:11;41.63;;;17.23;;
18796;SDS011;9526;52.612;13.300;2024-03-08T01:34:35;42.53;;;18.17;;
18796;SDS011;9526;52.612;13.300;2024-03-08T01:36:58;40.70;;;16.87;;
18796;SDS011;9526;52.612;13.300;2024-03-08T01:39:22;41.43;;;17.77;;
18796;SDS011;9526;52.612;13.300;2024-03-08T01:41:46;44.33;;;18.03;;
18796;SDS011;9526;52.612;13.300;2024-03-08T01:44:11;40.30;;;17.60;;
18796;SDS011;9526;52.612;13.300;2024-03-08T01:46:39;40.93;;;17.90;;
18796;SDS011;9526;52.612;13.300;2024-03-08T01:49:02;36.83;;;16.33;;
18796;SDS011;9526;52.612;13.300;2024-03-08T01:51:27;37.87;;;16.93;;
18796;SDS011;9526;52.612;13.300;2024-03-08T01:53:52;43.33;;;17.10;;
18796;SDS011;9526;52.612;13.300;2024-03-08T01:56:17;39.47;;;16.53;;
18796;SDS011;9526;52.612;13.300;2024-03-08T01:58:41;40.77;;;17.10;;
18796;SDS011;9526;52.612;13.300;2024-03-08T02:01:07;44.60;;;18.00;;
18796;SDS011;9526;52.612;13.300;2024-03-08T02:03:31;38.87;;;16.23;;
18796;SDS011;9526;52.612;13.300;2024-03-08T02:05:55;42.10;;;16.93;;
18796;SDS011;9526;52.612;13.300;2024-03-08T02:08:20;42.80;;;17.57;;
18796;SDS011;9526;52.612;13.300;2024-03-08T02:10:44;46.63;;;17.67;;
18796;SDS011;9526;52.612;13.300;2024-03-08T02:13:09;42.57;;;17.70;;
18796;SDS011;9526;52.612;13.300;2024-03-08T02:15:49;43.43;;;17.93;;
18796;SDS011;9526;52.612;13.300;2024-03-08T02:18:16;43.93;;;17.83;;
18796;SDS011;9526;52.612;13.300;2024-03-08T02:20:41;40.90;;;17.27;;
18796;SDS011;9526;52.612;13.300;2024-03-08T02:23:05;43.93;;;16.90;;
18796;SDS011;9526;52.612;13.300;2024-03-08T02:25:29;43.93;;;17.57;;
18796;SDS011;9526;52.612;13.300;2024-03-08T02:27:53;39.67;;;15.80;;
18796;SDS011;9526;52.612;13.300;2024-03-08T02:30:16;43.10;;;17.73;;
18796;SDS011;9526;52.612;13.300;2024-03-08T02:32:40;35.97;;;15.77;;
18796;SDS011;9526;52.612;13.300;2024-03-08T02:35:05;40.30;;;16.67;;
18796;SDS011;9526;52.612;13.300;2024-03-08T02:37:30;40.97;;;17.00;;
18796;SDS011;9526;52.612;13.300;2024-03-08T02:39:55;44.03;;;16.83;;
18796;SDS011;9526;52.612;13.300;2024-03-08T02:42:18;43.70;;;16.57;;
18796;SDS011;9526;52.612;13.300;2024-03-08T02:44:42;39.70;;;17.30;;
18796;SDS011;9526;52.612;13.300;2024-03-08T02:47:06;43.77;;;17.57;;
18796;SDS011;9526;52.612;13.300;2024-03-08T02:49:30;43.67;;;16.50;;
18796;SDS011;9526;52.612;13.300;2024-03-08T02:51:54;42.77;;;17.53;;
18796;SDS011;9526;52.612;13.300;2024-03-08T02:54:20;41.07;;;17.40;;
18796;SDS011;9526;52.612;13.300;2024-03-08T02:56:43;41.77;;;17.20;;
18796;SDS011;9526;52.612;13.300;2024-03-08T02:59:08;42.03;;;17.27;;
18796;SDS011;9526;52.612;13.300;2024-03-08T03:01:31;43.77;;;16.93;;
18796;SDS011;9526;52.612;13.300;2024-03-08T03:03:58;45.67;;;17.10;;
18796;SDS011;9526;52.612;13.300;2024-03-08T03:06:22;45.30;;;17.53;;
18796;SDS011;9526;52.612;13.300;2024-03-08T03:08:45;45.97;;;17.93;;
18796;SDS011;9526;52.612;13.300;2024-03-08T03:11:11;45.60;;;18.07;;
18796;SDS011;9526;52.612;13.300;2024-03-08T03:13:36;40.37;;;17.00;;
18796;SDS011;9526;52.612;13.300;2024-03-08T03:16:00;40.13;;;16.50;;
18796;SDS011;9526;52.612;13.300;2024-03-08T03:18:25;40.67;;;17.30;;
18796;SDS011;9526;52.612;13.300;2024-03-08T03:20:49;44.03;;;16.73;;
18796;SDS011;9526;52.612;13.300;2024-03-08T03:23:12;44.73;;;17.63;;
18796;SDS011;9526;52.612;13.300;2024-03-08T03:25:42;39.63;;;17.43;;
18796;SDS011;9526;52.612;13.300;2024-03-08T03:28:09;40.40;;;17.57;;
18796;SDS011;9526;52.612;13.300;2024-03-08T03:30:36;50.33;;;17.93;;
18796;SDS011;9526;52.612;13.300;2024-03-08T03:33:01;41.33;;;17.90;;
18796;SDS011;9526;52.612;13.300;2024-03-08T03:35:29;40.73;;;17.37;;
18796;SDS011;9526;52.612;13.300;2024-03-08T03:37:53;40.33;;;17.10;;
18796;SDS011;9526;52.612;13.300;2024-03-08T03:40:27;42.20;;;16.83;;
18796;SDS011;9526;52.612;13.300;2024-03-08T03:42:51;42.33;;;17.90;;
18796;SDS011;9526;52.612;13.300;2024-03-08T03:45:16;39.77;;;17.50;;
18796;SDS011;9526;52.612;13.300;2024-03-08T03:47:42;42.83;;;17.10;;
18796;SDS011;9526;52.612;13.300;2024-03-08T03:50:06;39.90;;;16.70;;
18796;SDS011;9526;52.612;13.300;2024-03-08T03:52:32;43.53;;;17.33;;
18796;SDS011;9526;52.612;13.300;2024-03-08T03:54:55;43.83;;;17.57;;
18796;SDS011;9526;52.612;13.300;2024-03-08T03:57:19;44.53;;;16.83;;
18796;SDS011;9526;52.612;13.300;2024-03-08T03:59:44;38.67;;;16.57;;
18796;SDS011;9526;52.612;13.300;2024-03-08T04:02:10;42.30;;;17.33;;
18796;SDS011;9526;52.612;13.300;2024-03-08T04:04:34;40.60;;;17.10;;
18796;SDS011;9526;52.612;13.300;2024-03-08T04:06:58;42.30;;;17.37;;
18796;SDS011;9526;52.612;13.300;2024-03-08T04:09:23;49.83;;;18.53;;
18796;SDS011;9526;52.612;13.300;2024-03-08T04:11:47;45.53;;;18.60;;
18796;SDS011;9526;52.612;13.300;2024-03-08T04:14:11;50.10;;;18.80;;
18796;SDS011;9526;52.612;13.300;2024-03-08T04:16:35;44.07;;;18.50;;
18796;SDS011;9526;52.612;13.300;2024-03-08T04:19:01;48.50;;;18.67;;
18796;SDS011;9526;52.612;13.300;2024-03-08T04:21:26;45.97;;;17.83;;
18796;SDS011;9526;52.612;13.300;2024-03-08T04:23:49;44.97;;;18.23;;
18796;SDS011;9526;52.612;13.300;2024-03-08T04:26:12;44.77;;;18.77;;
18796;SDS011;9526;52.612;13.300;2024-03-08T04:28:40;46.00;;;18.83;;
18796;SDS011;9526;52.612;13.300;2024-03-08T04:31:03;45.40;;;17.30;;
18796;SDS011;9526;52.612;13.300;2024-03-08T04:33:28;47.63;;;18.47;;
18796;SDS011;9526;52.612;13.300;2024-03-08T04:35:53;50.70;;;19.00;;
18796;SDS011;9526;52.612;13.300;2024-03-08T04:38:17;48.27;;;19.13;;
18796;SDS011;9526;52.612;13.300;2024-03-08T04:40:41;47.07;;;18.37;;
18796;SDS011;9526;52.612;13.300;2024-03-08T04:43:04;47.00;;;18.33;;
18796;SDS011;9526;52.612;13.300;2024-03-08T04:45:30;43.93;;;18.27;;
18796;SDS011;9526;52.612;13.300;2024-03-08T04:47:53;49.50;;;18.50;;
18796;SDS011;9526;52.612;13.300;2024-03-08T04:50:17;44.97;;;18.27;;
18796;SDS011;9526;52.612;13.300;2024-03-08T04:52:42;45.47;;;17.80;;
18796;SDS011;9526;52.612;13.300;2024-03-08T04:55:06;48.00;;;19.07;;
18796;SDS011;9526;52.612;13.300;2024-03-08T04:57:31;48.17;;;18.53;;
18796;SDS011;9526;52.612;13.300;2024-03-08T04:59:54;49.70;;;18.33;;
18796;SDS011;9526;52.612;13.300;2024-03-08T05:02:20;47.57;;;19.07;;
18796;SDS011;9526;52.612;13.300;2024-03-08T05:04:45;49.40;;;18.23;;
18796;SDS011;9526;52.612;13.300;2024-03-08T05:07:08;43.20;;;18.37;;
18796;SDS011;9526;52.612;13.300;2024-03-08T05:09:34;45.10;;;19.23;;
18796;SDS011;9526;52.612;13.300;2024-03-08T05:11:58;52.83;;;19.43;;
18796;SDS011;9526;52.612;13.300;2024-03-08T05:14:23;50.00;;;18.70;;
18796;SDS011;9526;52.612;13.300;2024-03-08T05:16:47;45.77;;;18.57;;
18796;SDS011;9526;52.612;13.300;2024-03-08T05:19:11;47.77;;;18.90;;
18796;SDS011;9526;52.612;13.300;2024-03-08T05:21:34;47.70;;;17.93;;
18796;SDS011;9526;52.612;13.300;2024-03-08T05:23:59;48.00;;;18.00;;
18796;SDS011;9526;52.612;13.300;2024-03-08T05:26:24;45.17;;;19.43;;
18796;SDS011;9526;52.612;13.300;2024-03-08T05:28:48;46.67;;;17.80;;
18796;SDS011;9526;52.612;13.300;2024-03-08T05:31:14;48.23;;;18.87;;
18796;SDS011;9526;52.612;13.300;2024-03-08T05:33:43;49.27;;;18.83;;
18796;SDS011;9526;52.612;13.300;2024-03-08T05:36:07;47.90;;;19.30;;
18796;SDS011;9526;52.612;13.300;2024-03-08T05:38:33;43.00;;;18.40;;
18796;SDS011;9526;52.612;13.300;2024-03-08T05:40:57;41.77;;;18.63;;
18796;SDS011;9526;52.612;13.300;2024-03-08T05:43:22;45.20;;;18.53;;
18796;SDS011;9526;52.612;13.300;2024-03-08T05:45:46;41.57;;;17.23;;
18796;SDS011;9526;52.612;13.300;2024-03-08T05:48:10;46.30;;;19.00;;
18796;SDS011;9526;52.612;13.300;2024-03-08T05:50:34;46.70;;;18.43;;
18796;SDS011;9526;52.612;13.300;2024-03-08T05:52:58;42.10;;;18.10;;
18796;SDS011;9526;52.612;13.300;2024-03-08T05:55:22;44.37;;;18.60;;
18796;SDS011;9526;52.612;13.300;2024-03-08T05:57:46;44.90;;;18.97;;
18796;SDS011;9526;52.612;13.300;2024-03-08T06:00:12;43.03;;;18.03;;
18796;SDS011;9526;52.612;13.300;2024-03-08T06:02:37;49.30;;;18.90;;
18796;SDS011;9526;52.612;13.300;2024-03-08T06:05:03;49.53;;;20.53;;
18796;SDS011;9526;52.612;13.300;2024-03-08T06:07:28;49.87;;;19.23;;
18796;SDS011;9526;52.612;13.300;2024-03-08T06:09:52;52.93;;;20.40;;
18796;SDS011;9526;52.612;13.300;2024-03-08T06:12:15;49.40;;;18.67;;
18796;SDS011;9526;52.612;13.300;2024-03-08T06:14:40;47.80;;;19.83;;
18796;SDS011;9526;52.612;13.300;2024-03-08T06:17:06;48.03;;;19.40;;
18796;SDS011;9526;52.612;13.300;2024-03-08T06:19:30;49.87;;;19.03;;
18796;SDS011;9526;52.612;13.300;2024-03-08T06:21:53;45.73;;;20.10;;
18796;SDS011;9526;52.612;13.300;2024-03-08T06:24:17;48.70;;;19.23;;
18796;SDS011;9526;52.612;13.300;2024-03-08T06:26:41;48.63;;;19.67;;
18796;SDS011;9526;52.612;13.300;2024-03-08T06:29:05;49.73;;;20.17;;
18796;SDS011;9526;52.612;13.300;2024-03-08T06:31:29;53.83;;;20.37;;
18796;SDS011;9526;52.612;13.300;2024-03-08T06:33:54;49.10;;;19.70;;
18796;SDS011;9526;52.612;13.300;2024-03-08T06:36:19;51.70;;;20.60;;
18796;SDS011;9526;52.612;13.300;2024-03-08T06:38:44;53.60;;;20.33;;
18796;SDS011;9526;52.612;13.300;2024-03-08T06:41:08;49.73;;;19.97;;
18796;SDS011;9526;52.612;13.300;2024-03-08T06:43:36;50.73;;;20.30;;
18796;SDS011;9526;52.612;13.300;2024-03-08T06:46:01;46.87;;;19.97;;
18796;SDS011;9526;52.612;13.300;2024-03-08T06:48:25;54.03;;;21.17;;
18796;SDS011;9526;52.612;13.300;2024-03-08T06:50:52;51.40;;;21.47;;
18796;SDS011;9526;52.612;13.300;2024-03-08T06:53:17;53.77;;;22.70;;
18796;SDS011;9526;52.612;13.300;2024-03-08T06:55:45;51.63;;;22.50;;
18796;SDS011;9526;52.612;13.300;2024-03-08T06:58:09;55.90;;;21.43;;
18796;SDS011;9526;52.612;13.300;2024-03-08T07:00:33;52.90;;;19.80;;
18796;SDS011;9526;52.612;13.300;2024-03-08T07:02:57;48.43;;;20.97;;
18796;SDS011;9526;52.612;13.300;2024-03-08T07:05:24;48.37;;;20.53;;
18796;SDS011;9526;52.612;13.300;2024-03-08T07:07:56;45.40;;;19.57;;
18796;SDS011;9526;52.612;13.300;2024-03-08T07:10:20;48.70;;;21.17;;
18796;SDS011;9526;52.612;13.300;2024-03-08T07:12:46;46.70;;;20.10;;
18796;SDS011;9526;52.612;13.300;2024-03-08T07:15:09;46.87;;;19.40;;
18796;SDS011;9526;52.612;13.300;2024-03-08T07:17:35;50.03;;;20.97;;
18796;SDS011;9526;52.612;13.300;2024-03-08T07:20:01;48.70;;;19.90;;
18796;SDS011;9526;52.612;13.300;2024-03-08T07:22:29;51.30;;;21.57;;
18796;SDS011;9526;52.612;13.300;2024-03-08T07:24:54;46.27;;;20.43;;
18796;SDS011;9526;52.612;13.300;2024-03-08T07:27:37;48.87;;;21.53;;
18796;SDS011;9526;52.612;13.300;2024-03-08T07:30:00;53.10;;;20.77;;
18796;SDS011;9526;52.612;13.300;2024-03-08T07:32:27;50.67;;;21.03;;
18796;SDS011;9526;52.612;13.300;2024-03-08T07:34:51;52.47;;;21.90;;
18796;SDS011;9526;52.612;13.300;2024-03-08T07:37:17;49.73;;;22.03;;
18796;SDS011;9526;52.612;13.300;2024-03-08T07:39:42;46.67;;;21.50;;
18796;SDS011;9526;52.612;13.300;2024-03-08T07:42:07;54.37;;;22.87;;
18796;SDS011;9526;52.612;13.300;2024-03-08T07:44:31;53.93;;;22.33;;
18796;SDS011;9526;52.612;13.300;2024-03-08T07:46:55;50.03;;;23.13;;
18796;SDS011;9526;52.612;13.300;2024-03-08T07:49:19;48.77;;;21.67;;
18796;SDS011;9526;52.612;13.300;2024-03-08T07:51:43;50.40;;;21.17;;
18796;SDS011;9526;52.612;13.300;2024-03-08T07:54:06;58.60;;;23.53;;
18796;SDS011;9526;52.612;13.300;2024-03-08T07:56:31;49.73;;;22.77;;
18796;SDS011;9526;52.612;13.300;2024-03-08T07:58:57;51.80;;;22.87;;
18796;SDS011;9526;52.612;13.300;2024-03-08T08:01:21;54.13;;;23.50;;
18796;SDS011;9526;52.612;13.300;2024-03-08T08:03:45;49.50;;;22.13;;
18796;SDS011;9526;52.612;13.300;2024-03-08T08:06:10;48.37;;;22.17;;
18796;SDS011;9526;52.612;13.300;2024-03-08T08:08:37;50.93;;;22.47;;
18796;SDS011;9526;52.612;13.300;2024-03-08T08:11:01;46.53;;;19.20;;
18796;SDS011;9526;52.612;13.300;2024-03-08T08:13:26;50.00;;;21.47;;
18796;SDS011;9526;52.612;13.300;2024-03-08T08:15:55;50.53;;;20.80;;
18796;SDS011;9526;52.612;13.300;2024-03-08T08:18:19;49.30;;;21.67;;
18796;SDS011;9526;52.612;13.300;2024-03-08T08:20:46;48.67;;;22.17;;
18796;SDS011;9526;52.612;13.300;2024-03-08T08:23:10;53.60;;;21.87;;
18796;SDS011;9526;52.612;13.300;2024-03-08T08:25:34;45.13;;;20.10;;
18796;SDS011;9526;52.612;13.300;2024-03-08T08:27:57;45.67;;;20.67;;
18796;SDS011;9526;52.612;13.300;2024-03-08T08:30:21;51.27;;;20.63;;
18796;SDS011;9526;52.612;13.300;2024-03-08T08:32:46;51.53;;;21.53;;
18796;SDS011;9526;52.612;13.300;2024-03-08T08:35:11;45.57;;;19.87;;
18796;SDS011;9526;52.612;13.300;2024-03-08T08:37:35;50.93;;;20.80;;
18796;SDS011;9526;52.612;13.300;2024-03-08T08:40:01;37.77;;;19.03;;
18796;SDS011;9526;52.612;13.300;2024-03-08T08:42:30;43.30;;;21.03;;
18796;SDS011;9526;52.612;13.300;2024-03-08T08:44:54;39.43;;;18.60;;
18796;SDS011;9526;52.612;13.300;2024-03-08T08:47:29;44.10;;;20.20;;
18796;SDS011;9526;52.612;13.300;2024-03-08T08:49:54;40.03;;;19.50;;
18796;SDS011;9526;52.612;13.300;2024-03-08T08:52:18;41.23;;;18.97;;
18796;SDS011;9526;52.612;13.300;2024-03-08T08:54:42;45.13;;;20.60;;
18796;SDS011;9526;52.612;13.300;2024-03-08T08:57:11;40.17;;;19.00;;
18796;SDS011;9526;52.612;13.300;2024-03-08T08:59:35;41.45;;;18.92;;
18796;SDS011;9526;52.612;13.300;2024-03-08T09:02:01;41.33;;;19.00;;
18796;SDS011;9526;52.612;13.300;2024-03-08T09:04:26;38.75;;;17.42;;
18796;SDS011;9526;52.612;13.300;2024-03-08T09:06:52;37.05;;;17.45;;
18796;SDS011;9526;52.612;13.300;2024-03-08T09:09:15;38.92;;;18.30;;
18796;SDS011;9526;52.612;13.300;2024-03-08T09:11:40;39.08;;;17.90;;
18796;SDS011;9526;52.612;13.300;2024-03-08T09:14:04;37.10;;;17.60;;
18796;SDS011;9526;52.612;13.300;2024-03-08T09:16:28;37.53;;;17.88;;
18796;SDS011;9526;52.612;13.300;2024-03-08T09:18:52;43.08;;;19.27;;
18796;SDS011;9526;52.612;13.300;2024-03-08T09:21:16;38.50;;;18.45;;
18796;SDS011;9526;52.612;13.300;2024-03-08T09:23:44;39.72;;;18.17;;
18796;SDS011;9526;52.612;13.300;2024-03-08T09:26:08;39.63;;;18.20;;
18796;SDS011;9526;52.612;13.300;2024-03-08T09:28:46;36.50;;;18.35;;
18796;SDS011;9526;52.612;13.300;2024-03-08T09:31:10;36.13;;;18.13;;
18796;SDS011;9526;52.612;13.300;2024-03-08T09:33:34;38.08;;;19.65;;
18796;SDS011;9526;52.612;13.300;2024-03-08T09:35:57;38.75;;;18.67;;
18796;SDS011;9526;52.612;13.300;2024-03-08T09:38:24;36.05;;;18.33;;
18796;SDS011;9526;52.612;13.300;2024-03-08T09:40:49;41.08;;;19.02;;
18796;SDS011;9526;52.612;13.300;2024-03-08T09:43:14;36.50;;;18.33;;
18796;SDS011;9526;52.612;13.300;2024-03-08T09:45:43;38.53;;;18.45;;
18796;SDS011;9526;52.612;13.300;2024-03-08T09:48:11;38.22;;;19.80;;
18796;SDS011;9526;52.612;13.300;2024-03-08T09:50:35;40.45;;;19.33;;
18796;SDS011;9526;52.612;13.300;2024-03-08T09:52:59;36.38;;;18.23;;
18796;SDS011;9526;52.612;13.300;2024-03-08T09:55:24;36.15;;;18.20;;
18796;SDS011;9526;52.612;13.300;2024-03-08T09:57:55;38.58;;;19.48;;
18796;SDS011;9526;52.612;13.300;2024-03-08T10:00:36;41.08;;;20.23;;
18796;SDS011;9526;52.612;13.300;2024-03-08T10:03:00;36.47;;;18.35;;
18796;SDS011;9526;52.612;13.300;2024-03-08T10:05:25;37.10;;;18.92;;
18796;SDS011;9526;52.612;13.300;2024-03-08T10:07:49;35.38;;;18.20;;
18796;SDS011;9526;52.612;13.300;2024-03-08T10:10:13;39.83;;;18.92;;
18796;SDS011;9526;52.612;13.300;2024-03-08T10:12:38;38.35;;;19.20;;
18796;SDS011;9526;52.612;13.300;2024-03-08T10:15:04;38.17;;;20.35;;
18796;SDS011;9526;52.612;13.300;2024-03-08T10:17:30;35.55;;;17.92;;
18796;SDS011;9526;52.612;13.300;2024-03-08T10:19:54;38.00;;;17.77;;
18796;SDS011;9526;52.612;13.300;2024-03-08T10:22:20;33.33;;;16.95;;
18796;SDS011;9526;52.612;13.300;2024-03-08T10:24:44;36.88;;;17.40;;
18796;SDS011;9526;52.612;13.300;2024-03-08T10:27:07;36.58;;;17.17;;
18796;SDS011;9526;52.612;13.300;2024-03-08T10:29:32;32.70;;;17.00;;
18796;SDS011;9526;52.612;13.300;2024-03-08T10:31:57;36.63;;;18.02;;
18796;SDS011;9526;52.612;13.300;2024-03-08T10:34:22;35.95;;;17.60;;
18796;SDS011;9526;52.612;13.300;2024-03-08T10:36:46;31.20;;;16.83;;
18796;SDS011;9526;52.612;13.300;2024-03-08T10:39:19;34.63;;;16.83;;
18796;SDS011;9526;52.612;13.300;2024-03-08T10:41:46;31.20;;;16.48;;
18796;SDS011;9526;52.612;13.300;2024-03-08T10:44:18;32.58;;;16.15;;
18796;SDS011;9526;52.612;13.300;2024-03-08T10:47:07;31.80;;;16.33;;
18796;SDS011;9526;52.612;13.300;2024-03-08T10:49:43;32.30;;;15.30;;
18796;SDS011;9526;52.612;13.300;2024-03-08T10:52:14;31.35;;;14.77;;
18796;SDS011;9526;52.612;13.300;2024-03-08T10:54:40;29.58;;;15.32;;
18796;SDS011;9526;52.612;13.300;2024-03-08T10:57:06;26.45;;;14.50;;
18796;SDS011;9526;52.612;13.300;2024-03-08T10:59:32;28.42;;;14.88;;
18796;SDS011;9526;52.612;13.300;2024-03-08T11:01:57;32.70;;;14.35;;
18796;SDS011;9526;52.612;13.300;2024-03-08T11:04:22;28.63;;;14.98;;
18796;SDS011;9526;52.612;13.300;2024-03-08T11:06:46;29.50;;;14.98;;
18796;SDS011;9526;52.612;13.300;2024-03-08T11:12:09;27.40;;;14.18;;
18796;SDS011;9526;52.612;13.300;2024-03-08T11:14:43;26.90;;;15.18;;
18796;SDS011;9526;52.612;13.300;2024-03-08T11:17:10;24.70;;;13.05;;
18796;SDS011;9526;52.612;13.300;2024-03-08T11:19:45;27.83;;;14.52;;
18796;SDS011;9526;52.612;13.300;2024-03-08T11:22:13;31.65;;;16.23;;
18796;SDS011;9526;52.612;13.300;2024-03-08T11:24:48;31.60;;;15.73;;
18796;SDS011;9526;52.612;13.300;2024-03-08T11:27:11;30.05;;;15.65;;
18796;SDS011;9526;52.612;13.300;2024-03-08T11:29:36;31.15;;;15.07;;
18796;SDS011;9526;52.612;13.300;2024-03-08T11:32:05;33.33;;;15.73;;
18796;SDS011;9526;52.612;13.300;2024-03-08T11:34:31;28.23;;;15.02;;
18796;SDS011;9526;52.612;13.300;2024-03-08T11:36:57;30.25;;;14.50;;
18796;SDS011;9526;52.612;13.300;2024-03-08T11:39:21;31.77;;;15.35;;
18796;SDS011;9526;52.612;13.300;2024-03-08T11:41:46;31.88;;;14.70;;
18796;SDS011;9526;52.612;13.300;2024-03-08T11:44:11;30.10;;;15.93;;
18796;SDS011;9526;52.612;13.300;2024-03-08T11:46:37;26.92;;;14.60;;
18796;SDS011;9526;52.612;13.300;2024-03-08T11:49:07;29.33;;;14.63;;
18796;SDS011;9526;52.612;13.300;2024-03-08T11:51:30;27.63;;;14.95;;
18796;SDS011;9526;52.612;13.300;2024-03-08T11:53:56;25.98;;;13.55;;
18796;SDS011;9526;52.612;13.300;2024-03-08T11:56:20;26.65;;;14.00;;
18796;SDS011;9526;52.612;13.300;2024-03-08T11:58:52;27.52;;;14.57;;
18796;SDS011;9526;52.612;13.300;2024-03-08T12:01:19;27.90;;;15.00;;
18796;SDS011;9526;52.612;13.300;2024-03-08T12:03:45;25.95;;;14.05;;
18796;SDS011;9526;52.612;13.300;2024-03-08T12:06:16;28.42;;;14.43;;
18796;SDS011;9526;52.612;13.300;2024-03-08T12:08:41;31.20;;;15.23;;
18796;SDS011;9526;52.612;13.300;2024-03-08T12:11:07;26.83;;;14.20;;
18796;SDS011;9526;52.612;13.300;2024-03-08T12:13:32;26.65;;;15.02;;
18796;SDS011;9526;52.612;13.300;2024-03-08T12:15:57;26.27;;;13.93;;
18796;SDS011;9526;52.612;13.300;2024-03-08T12:18:21;30.10;;;14.38;;
18796;SDS011;9526;52.612;13.300;2024-03-08T12:20:46;29.42;;;14.55;;
18796;SDS011;9526;52.612;13.300;2024-03-08T12:23:14;20.77;;;9.90;;
18796;SDS011;9526;52.612;13.300;2024-03-08T12:25:38;30.13;;;15.02;;
18796;SDS011;9526;52.612;13.300;2024-03-08T12:28:10;32.33;;;14.93;;
18796;SDS011;9526;52.612;13.300;2024-03-08T12:30:37;24.77;;;12.93;;
18796;SDS011;9526;52.612;13.300;2024-03-08T12:33:10;26.48;;;13.25;;
18796;SDS011;9526;52.612;13.300;2024-03-08T12:35:34;30.15;;;14.75;;
18796;SDS011;9526;52.612;13.300;2024-03-08T12:37:59;24.05;;;12.43;;
18796;SDS011;9526;52.612;13.300;2024-03-08T12:40:26;19.58;;;9.43;;
18796;SDS011;9526;52.612;13.300;2024-03-08T12:42:54;27.63;;;13.98;;
18796;SDS011;9526;52.612;13.300;2024-03-08T12:45:19;28.40;;;14.30;;
18796;SDS011;9526;52.612;13.300;2024-03-08T12:47:45;29.17;;;14.80;;
18796;SDS011;9526;52.612;13.300;2024-03-08T12:50:11;30.23;;;15.23;;
18796;SDS011;9526;52.612;13.300;2024-03-08T12:52:34;29.55;;;15.15;;
18796;SDS011;9526;52.612;13.300;2024-03-08T12:54:58;29.27;;;14.55;;
18796;SDS011;9526;52.612;13.300;2024-03-08T12:57:25;27.75;;;14.38;;
18796;SDS011;9526;52.612;13.300;2024-03-08T12:59:49;29.13;;;14.45;;
18796;SDS011;9526;52.612;13.300;2024-03-08T13:02:16;31.08;;;15.40;;
18796;SDS011;9526;52.612;13.300;2024-03-08T13:04:42;30.77;;;14.88;;
18796;SDS011;9526;52.612;13.300;2024-03-08T13:07:06;25.13;;;12.02;;
18796;SDS011;9526;52.612;13.300;2024-03-08T13:09:29;31.50;;;14.20;;
18796;SDS011;9526;52.612;13.300;2024-03-08T13:11:54;29.70;;;14.00;;
18796;SDS011;9526;52.612;13.300;2024-03-08T13:14:20;31.92;;;14.85;;
18796;SDS011;9526;52.612;13.300;2024-03-08T13:16:44;28.25;;;14.50;;
18796;SDS011;9526;52.612;13.300;2024-03-08T13:19:11;30.25;;;14.32;;
18796;SDS011;9526;52.612;13.300;2024-03-08T13:21:35;24.98;;;14.27;;
18796;SDS011;9526;52.612;13.300;2024-03-08T13:23:59;26.45;;;13.63;;
18796;SDS011;9526;52.612;13.300;2024-03-08T13:26:24;27.55;;;14.25;;
18796;SDS011;9526;52.612;13.300;2024-03-08T13:28:54;30.45;;;14.23;;
18796;SDS011;9526;52.612;13.300;2024-03-08T13:31:20;31.10;;;14.98;;
18796;SDS011;9526;52.612;13.300;2024-03-08T13:33:44;29.08;;;15.73;;
18796;SDS011;9526;52.612;13.300;2024-03-08T13:36:10;28.20;;;14.93;;
18796;SDS011;9526;52.612;13.300;2024-03-08T13:38:36;28.48;;;15.20;;
18796;SDS011;9526;52.612;13.300;2024-03-08T13:41:00;32.30;;;15.52;;
18796;SDS011;9526;52.612;13.300;2024-03-08T13:43:24;31.42;;;14.93;;
18796;SDS011;9526;52.612;13.300;2024-03-08T13:45:50;28.10;;;14.68;;
18796;SDS011;9526;52.612;13.300;2024-03-08T13:48:14;27.42;;;15.15;;
18796;SDS011;9526;52.612;13.300;2024-03-08T13:50:38;32.35;;;15.38;;
18796;SDS011;9526;52.612;13.300;2024-03-08T13:53:03;30.77;;;15.48;;
18796;SDS011;9526;52.612;13.300;2024-03-08T13:55:27;32.70;;;15.27;;
18796;SDS011;9526;52.612;13.300;2024-03-08T13:57:52;32.55;;;15.05;;
18796;SDS011;9526;52.612;13.300;2024-03-08T14:00:16;28.10;;;15.38;;
18796;SDS011;9526;52.612;13.300;2024-03-08T14:02:44;30.02;;;15.18;;
18796;SDS011;9526;52.612;13.300;2024-03-08T14:05:08;29.98;;;15.15;;
18796;SDS011;9526;52.612;13.300;2024-03-08T14:07:33;28.23;;;14.98;;
18796;SDS011;9526;52.612;13.300;2024-03-08T14:09:58;34.00;;;17.92;;
18796;SDS011;9526;52.612;13.300;2024-03-08T14:12:22;30.90;;;16.55;;